Greeneville, Tennessee
Current Conditions -  °F | °C
As of 9:35 PM on Sunday 25 Jan 2015 (Local Time) from KMOR Reporting Station
Scattered Clouds Scattered Clouds  
Wind Chill: 46°   Ceiling: Unl
Heat Index: 46°   Visibility: 10mi
Dew Point: 36°   Wind: 3mph
Humidity: 66%   Direction: 180°S
Pressure: 29.71"   Gusts: NA
Location:  36.16°N, 82.83°W
Report Text: KMOR 260235Z AUTO 18003KT 10SM SCT055 SCT070 SCT110 08/02 A2971 RMK
Loading
Personal Weather Stations






























Interactive Weather Map New forecast layout! Learn more

10-Day Weather Forecast

Advertisements
Track Severe Weather on mobile